Time;durP1;ratioP1;P1;durP2;ratioP2;P2;SDS_P1;SDS_P2;PMS_P1;PMS_P2;Temp;Humidity;BMP_temperature;BMP_pressure;BME280_temperature;BME280_humidity;BME280_pressure;Samples;Min_cycle;Max_cycle;Signal;HPM_P1;HPM_P2
2022/08/29 00:00:19;;;;;;;10.43;4.47;;;;;;;;;;5054154;28;20103;-74
2022/08/29 00:02:49;;;;;;;8.93;3.85;;;;;;;;;;5037043;28;20048;-73
2022/08/29 00:05:16;;;;;;;9.02;4.13;;;;;;;;;;5054369;28;20485;-73
2022/08/29 00:07:42;;;;;;;9.88;4.35;;;;;;;;;;5054100;28;20037;-73
2022/08/29 00:10:08;;;;;;;9.05;4.47;;;;;;;;;;5037763;28;20051;-73
2022/08/29 00:12:35;;;;;;;9.75;4.53;;;;;;;;;;5037282;28;20041;-73
2022/08/29 00:15:01;;;;;;;10.90;3.97;;;;;;;;;;5053891;28;20041;-73
2022/08/29 00:17:27;;;;;;;8.90;4.32;;;;;;;;;;5037082;28;20048;-73
2022/08/29 00:19:53;;;;;;;9.00;4.22;;;;;;;;;;5053785;28;20396;-73
2022/08/29 00:22:19;;;;;;;9.00;3.90;;;;;;;;;;5053663;28;20041;-73
2022/08/29 00:24:45;;;;;;;10.32;4.28;;;;;;;;;;5053423;28;20080;-73
2022/08/29 00:27:11;;;;;;;8.73;4.00;;;;;;;;;;5053682;28;20094;-73
2022/08/29 00:29:38;;;;;;;10.77;3.97;;;;;;;;;;5037335;28;20116;-73
2022/08/29 00:32:04;;;;;;;9.93;3.72;;;;;;;;;;5036742;28;20106;-73
2022/08/29 00:34:30;;;;;;;9.82;3.80;;;;;;;;;;5054147;28;20225;-73
2022/08/29 00:36:56;;;;;;;10.38;4.00;;;;;;;;;;5036483;28;20075;-73
2022/08/29 00:39:23;;;;;;;11.35;4.00;;;;;;;;;;5053379;28;20127;-73
2022/08/29 00:41:49;;;;;;;8.30;4.00;;;;;;;;;;5052950;28;20077;-73
2022/08/29 00:44:15;;;;;;;9.80;4.40;;;;;;;;;;5053472;28;20040;-73
2022/08/29 00:46:45;;;;;;;8.52;3.80;;;;;;;;;;5053576;28;20397;-73
2022/08/29 00:49:16;;;;;;;6.22;4.05;;;;;;;;;;5053039;28;20494;-73
2022/08/29 00:51:47;;;;;;;7.50;4.00;;;;;;;;;;5053018;28;20057;-73
2022/08/29 00:54:14;;;;;;;12.27;4.63;;;;;;;;;;5053067;28;20055;-73
2022/08/29 00:56:41;;;;;;;12.77;4.07;;;;;;;;;;5054372;28;20502;-73
2022/08/29 00:59:19;;;;;;;9.55;3.83;;;;;;;;;;5053032;28;20517;-73
2022/08/29 01:01:45;;;;;;;8.20;3.80;;;;;;;;;;5053276;28;20051;-73
2022/08/29 01:04:12;;;;;;;8.25;4.13;;;;;;;;;;5052446;28;20041;-73
2022/08/29 01:06:39;;;;;;;10.02;3.83;;;;;;;;;;5053192;28;20457;-74
2022/08/29 01:09:05;;;;;;;9.77;3.72;;;;;;;;;;5052660;28;20065;-73
2022/08/29 01:14:18;;;;;;;11.70;3.78;;;;;;;;;;5052715;28;20103;-73
2022/08/29 01:16:44;;;;;;;8.93;3.75;;;;;;;;;;5052761;28;20044;-73
2022/08/29 01:19:31;;;;;;;7.93;3.20;;;;;;;;;;5052310;28;20125;-73
2022/08/29 01:22:12;;;;;;;9.68;3.80;;;;;;;;;;5052213;28;20041;-73
2022/08/29 01:24:40;;;;;;;12.63;3.50;;;;;;;;;;5052655;28;20044;-73
2022/08/29 01:27:07;;;;;;;8.07;3.47;;;;;;;;;;5052390;28;20052;-73
2022/08/29 01:29:33;;;;;;;8.85;3.53;;;;;;;;;;5052526;28;20044;-73
2022/08/29 01:32:00;;;;;;;8.68;3.45;;;;;;;;;;5052386;28;20080;-73
2022/08/29 01:34:27;;;;;;;11.98;3.80;;;;;;;;;;5035740;28;20060;-73
2022/08/29 01:36:55;;;;;;;6.55;3.58;;;;;;;;;;5052339;28;20074;-73
2022/08/29 01:39:23;;;;;;;8.20;3.30;;;;;;;;;;5052286;28;20049;-73
2022/08/29 01:41:50;;;;;;;7.10;3.75;;;;;;;;;;5052283;28;20041;-73
2022/08/29 01:44:18;;;;;;;9.07;3.42;;;;;;;;;;5052171;28;20481;-74
2022/08/29 01:46:44;;;;;;;8.95;3.40;;;;;;;;;;5052537;28;20485;-73
2022/08/29 01:49:10;;;;;;;7.07;3.58;;;;;;;;;;5051647;28;20045;-73
2022/08/29 01:51:37;;;;;;;6.60;3.33;;;;;;;;;;5051875;28;20057;-73
2022/08/29 01:54:07;;;;;;;7.72;3.58;;;;;;;;;;5051814;28;20048;-73
2022/08/29 01:56:34;;;;;;;8.95;3.38;;;;;;;;;;5052246;28;20112;-73
2022/08/29 01:59:01;;;;;;;9.07;3.10;;;;;;;;;;5035030;28;20041;-74
2022/08/29 02:01:29;;;;;;;9.63;4.00;;;;;;;;;;5050147;28;20048;-73
2022/08/29 02:03:57;;;;;;;7.97;3.30;;;;;;;;;;5051514;28;20116;-73
2022/08/29 02:06:23;;;;;;;9.00;3.42;;;;;;;;;;5045421;28;20410;-73
2022/08/29 02:08:49;;;;;;;9.48;3.45;;;;;;;;;;5043866;28;20037;-74
2022/08/29 02:11:17;;;;;;;8.98;3.38;;;;;;;;;;5057256;28;20041;-74
2022/08/29 02:13:45;;;;;;;8.63;3.35;;;;;;;;;;5045251;28;20068;-73
2022/08/29 02:16:11;;;;;;;6.78;3.33;;;;;;;;;;5039455;28;20045;-73
2022/08/29 02:18:37;;;;;;;7.68;3.38;;;;;;;;;;5045590;28;20041;-73
2022/08/29 02:21:04;;;;;;;6.97;4.03;;;;;;;;;;5040570;28;20037;-73
2022/08/29 02:23:30;;;;;;;7.78;3.50;;;;;;;;;;5043613;28;20045;-73
2022/08/29 02:25:57;;;;;;;8.45;3.45;;;;;;;;;;5042508;28;20056;-73
2022/08/29 02:28:23;;;;;;;8.52;3.63;;;;;;;;;;5048024;28;20098;-73
2022/08/29 02:30:51;;;;;;;9.52;3.30;;;;;;;;;;5044554;28;20040;-73
2022/08/29 02:33:18;;;;;;;7.93;3.58;;;;;;;;;;5039941;28;20033;-73
2022/08/29 02:35:44;;;;;;;9.95;3.35;;;;;;;;;;5046470;28;20037;-73
2022/08/29 02:38:11;;;;;;;8.00;3.20;;;;;;;;;;5039151;28;20068;-74
2022/08/29 02:40:38;;;;;;;7.22;3.67;;;;;;;;;;5044421;28;20079;-73
2022/08/29 02:43:04;;;;;;;10.02;3.90;;;;;;;;;;5040940;28;20167;-73
2022/08/29 02:45:30;;;;;;;9.68;3.28;;;;;;;;;;5047833;28;20049;-73
2022/08/29 02:47:57;;;;;;;9.02;3.30;;;;;;;;;;5051604;28;20044;-74
2022/08/29 02:50:24;;;;;;;7.07;3.10;;;;;;;;;;5050401;28;20198;-73
2022/08/29 02:52:51;;;;;;;7.53;3.10;;;;;;;;;;5050921;28;20127;-74
2022/08/29 02:55:18;;;;;;;8.80;3.25;;;;;;;;;;5034061;28;20044;-73
2022/08/29 02:57:45;;;;;;;7.75;3.22;;;;;;;;;;5050964;28;20094;-73
2022/08/29 03:00:15;;;;;;;5.78;3.08;;;;;;;;;;5034360;28;20045;-73
2022/08/29 03:02:46;;;;;;;7.28;2.80;;;;;;;;;;5050661;28;20559;-73
2022/08/29 03:05:12;;;;;;;8.43;3.30;;;;;;;;;;5033991;28;20044;-73
2022/08/29 03:07:38;;;;;;;8.32;3.13;;;;;;;;;;5052085;28;20060;-73
2022/08/29 03:10:06;;;;;;;6.70;2.92;;;;;;;;;;5034520;28;20037;-73
2022/08/29 03:12:32;;;;;;;6.38;2.90;;;;;;;;;;5050775;28;20053;-73
2022/08/29 03:14:58;;;;;;;8.18;3.28;;;;;;;;;;5034366;28;20041;-73
2022/08/29 03:17:24;;;;;;;6.00;2.70;;;;;;;;;;5050449;28;20041;-72
2022/08/29 03:19:50;;;;;;;7.80;3.10;;;;;;;;;;5034852;28;20392;-74
2022/08/29 03:22:17;;;;;;;7.05;3.10;;;;;;;;;;5050302;28;20045;-74
2022/08/29 03:24:43;;;;;;;10.30;3.38;;;;;;;;;;5053321;28;20037;-73
2022/08/29 03:27:09;;;;;;;9.50;3.20;;;;;;;;;;5054765;28;20115;-73
2022/08/29 03:29:37;;;;;;;8.77;3.05;;;;;;;;;;5054750;28;20041;-73
2022/08/29 03:32:03;;;;;;;11.57;3.50;;;;;;;;;;5054997;28;20060;-73
2022/08/29 03:34:30;;;;;;;7.95;2.90;;;;;;;;;;5054429;28;20045;-73
2022/08/29 03:36:56;;;;;;;6.95;3.10;;;;;;;;;;5054610;28;20044;-73
2022/08/29 03:39:22;;;;;;;6.88;2.88;;;;;;;;;;5054354;28;20494;-73
2022/08/29 03:41:48;;;;;;;7.95;3.20;;;;;;;;;;5054702;28;20041;-73
2022/08/29 03:44:14;;;;;;;6.53;3.20;;;;;;;;;;5037685;28;20048;-73
2022/08/29 03:46:40;;;;;;;6.80;2.92;;;;;;;;;;5038082;28;20493;-73
2022/08/29 03:49:07;;;;;;;7.32;3.00;;;;;;;;;;5055014;28;20393;-73
2022/08/29 03:51:37;;;;;;;9.48;3.03;;;;;;;;;;5053678;28;20139;-73
2022/08/29 03:54:04;;;;;;;6.75;3.00;;;;;;;;;;5054291;28;20044;-73
2022/08/29 03:56:30;;;;;;;10.07;3.40;;;;;;;;;;5054206;28;20117;-72
2022/08/29 03:58:57;;;;;;;6.85;3.30;;;;;;;;;;5054162;28;20064;-73
2022/08/29 04:01:25;;;;;;;7.40;2.97;;;;;;;;;;5053452;28;20493;-73
2022/08/29 04:03:52;;;;;;;8.13;3.28;;;;;;;;;;5049899;28;20038;-73
2022/08/29 04:06:18;;;;;;;9.57;3.13;;;;;;;;;;5043618;28;20119;-73
2022/08/29 04:08:48;;;;;;;7.68;2.95;;;;;;;;;;5045712;28;20110;-73
2022/08/29 04:11:14;;;;;;;8.35;3.22;;;;;;;;;;5042858;28;20045;-75
2022/08/29 04:13:41;;;;;;;6.70;3.05;;;;;;;;;;5036965;28;20041;-74
2022/08/29 04:16:14;;;;;;;7.68;3.55;;;;;;;;;;5041406;28;20069;-75
2022/08/29 04:18:40;;;;;;;9.77;3.15;;;;;;;;;;5047737;28;20402;-74
2022/08/29 04:21:07;;;;;;;6.28;3.20;;;;;;;;;;5041391;28;20052;-74
2022/08/29 04:23:34;;;;;;;7.03;2.95;;;;;;;;;;5045670;28;20191;-75
2022/08/29 04:26:00;;;;;;;8.27;3.00;;;;;;;;;;5053616;28;20051;-74
2022/08/29 04:28:26;;;;;;;9.30;3.42;;;;;;;;;;5046797;28;20528;-74
2022/08/29 04:30:52;;;;;;;9.70;4.45;;;;;;;;;;5044987;28;20041;-74
2022/08/29 04:33:22;;;;;;;7.57;3.30;;;;;;;;;;5043235;28;20120;-74
2022/08/29 04:35:48;;;;;;;8.23;3.10;;;;;;;;;;5044720;28;20037;-74
2022/08/29 04:38:15;;;;;;;8.32;3.10;;;;;;;;;;5042011;28;20045;-74
2022/08/29 04:40:41;;;;;;;6.63;2.95;;;;;;;;;;5039448;28;20120;-75
2022/08/29 04:43:08;;;;;;;6.43;3.05;;;;;;;;;;5042152;28;20042;-75
2022/08/29 04:45:34;;;;;;;7.80;3.00;;;;;;;;;;5044652;28;20121;-75
2022/08/29 04:48:01;;;;;;;9.00;3.00;;;;;;;;;;5043547;28;20045;-75
2022/08/29 04:50:27;;;;;;;10.02;3.30;;;;;;;;;;5042694;28;20052;-75
2022/08/29 04:52:53;;;;;;;8.70;3.80;;;;;;;;;;5051856;28;20049;-75
2022/08/29 04:55:21;;;;;;;6.22;3.00;;;;;;;;;;5050224;28;20134;-75
2022/08/29 04:57:48;;;;;;;6.75;3.55;;;;;;;;;;5053182;28;20044;-75
2022/08/29 05:00:16;;;;;;;7.25;3.13;;;;;;;;;;5053183;28;20055;-74
2022/08/29 05:02:43;;;;;;;7.82;3.13;;;;;;;;;;5053051;28;20489;-74
2022/08/29 05:05:10;;;;;;;6.90;3.25;;;;;;;;;;5053201;28;20504;-75
2022/08/29 05:07:36;;;;;;;9.20;3.80;;;;;;;;;;5054047;28;20044;-75
2022/08/29 05:10:05;;;;;;;7.45;3.15;;;;;;;;;;5053162;28;20420;-74
2022/08/29 05:12:32;;;;;;;7.43;3.00;;;;;;;;;;5036098;28;20051;-74
2022/08/29 05:14:59;;;;;;;10.00;2.95;;;;;;;;;;5052983;28;20048;-74
2022/08/29 05:17:25;;;;;;;7.80;3.42;;;;;;;;;;5054068;28;20112;-73
2022/08/29 05:19:51;;;;;;;11.65;3.28;;;;;;;;;;5052751;28;20116;-74
2022/08/29 05:22:18;;;;;;;10.43;3.58;;;;;;;;;;5052616;28;20053;-75
2022/08/29 05:24:45;;;;;;;8.27;3.08;;;;;;;;;;5052569;28;20111;-74
2022/08/29 05:27:13;;;;;;;7.10;3.45;;;;;;;;;;5052562;28;20049;-75
2022/08/29 05:29:40;;;;;;;7.53;3.15;;;;;;;;;;5052064;28;20074;-74
2022/08/29 05:32:07;;;;;;;10.77;3.42;;;;;;;;;;5053100;28;20127;-74
2022/08/29 05:34:34;;;;;;;8.10;3.13;;;;;;;;;;5019163;28;20036;-75
2022/08/29 05:37:00;;;;;;;6.90;3.25;;;;;;;;;;5053939;28;20045;-75
2022/08/29 05:39:26;;;;;;;9.52;4.13;;;;;;;;;;5053198;28;20128;-75
2022/08/29 05:41:56;;;;;;;8.68;3.22;;;;;;;;;;5053784;28;20103;-75
2022/08/29 05:44:22;;;;;;;8.18;3.55;;;;;;;;;;5052348;28;20040;-75
2022/08/29 05:46:48;;;;;;;8.07;3.40;;;;;;;;;;5035203;28;20056;-75
2022/08/29 05:49:14;;;;;;;12.63;3.63;;;;;;;;;;5052487;28;20059;-75
2022/08/29 05:51:41;;;;;;;9.73;3.60;;;;;;;;;;5034992;28;20068;-75
2022/08/29 05:54:07;;;;;;;6.68;2.85;;;;;;;;;;5052743;28;20076;-75
2022/08/29 05:56:33;;;;;;;9.63;3.25;;;;;;;;;;5051661;28;20040;-75
2022/08/29 05:58:59;;;;;;;8.02;3.85;;;;;;;;;;5051931;28;20047;-74
2022/08/29 06:01:27;;;;;;;10.77;3.70;;;;;;;;;;5035165;28;20099;-74
2022/08/29 06:03:55;;;;;;;8.40;3.30;;;;;;;;;;5035649;28;20041;-75
2022/08/29 06:06:22;;;;;;;12.13;3.78;;;;;;;;;;5035463;28;20489;-75
2022/08/29 06:08:48;;;;;;;10.07;3.90;;;;;;;;;;5051907;28;20048;-75
2022/08/29 06:11:16;;;;;;;9.45;3.42;;;;;;;;;;5051610;28;20049;-75
2022/08/29 06:13:42;;;;;;;10.05;3.53;;;;;;;;;;5051277;28;20183;-74
2022/08/29 06:16:10;;;;;;;6.32;3.28;;;;;;;;;;5035154;28;20048;-75
2022/08/29 06:18:36;;;;;;;8.75;3.17;;;;;;;;;;5051763;28;20504;-75
2022/08/29 06:21:05;;;;;;;9.52;3.55;;;;;;;;;;5052969;28;20124;-75
2022/08/29 06:23:31;;;;;;;8.68;3.00;;;;;;;;;;5034989;28;20111;-74
2022/08/29 06:25:58;;;;;;;9.48;3.28;;;;;;;;;;5051301;28;20035;-75
2022/08/29 06:28:26;;;;;;;8.77;2.67;;;;;;;;;;5051862;28;20495;-75
2022/08/29 06:30:52;;;;;;;6.22;2.42;;;;;;;;;;5051228;28;20120;-75
2022/08/29 06:33:18;;;;;;;7.60;2.55;;;;;;;;;;5051459;28;20037;-75
2022/08/29 06:35:44;;;;;;;7.78;2.80;;;;;;;;;;5034412;28;20055;-75
2022/08/29 06:38:10;;;;;;;7.40;2.70;;;;;;;;;;5018405;28;20040;-75
2022/08/29 06:40:36;;;;;;;10.35;3.15;;;;;;;;;;5051140;28;20045;-75
2022/08/29 06:43:02;;;;;;;6.45;2.33;;;;;;;;;;5034705;28;20458;-75
2022/08/29 06:45:28;;;;;;;7.45;2.53;;;;;;;;;;5051929;28;20526;-75
2022/08/29 06:47:54;;;;;;;11.68;2.65;;;;;;;;;;5052388;28;20037;-75
2022/08/29 06:50:21;;;;;;;8.75;2.70;;;;;;;;;;5052352;28;20049;-75
2022/08/29 06:52:47;;;;;;;5.53;2.30;;;;;;;;;;5051040;28;20381;-75
2022/08/29 06:55:13;;;;;;;6.57;2.17;;;;;;;;;;5051194;28;20520;-75
2022/08/29 06:57:43;;;;;;;21.75;4.07;;;;;;;;;;5050354;28;20052;-75
2022/08/29 07:00:14;;;;;;;4.88;2.10;;;;;;;;;;5050682;28;20049;-75
2022/08/29 07:02:40;;;;;;;6.75;2.53;;;;;;;;;;5050602;28;20136;-75
2022/08/29 07:05:07;;;;;;;8.32;2.42;;;;;;;;;;5034645;28;20037;-75
2022/08/29 07:07:33;;;;;;;9.20;2.53;;;;;;;;;;5050551;28;20036;-75
2022/08/29 07:10:00;;;;;;;6.97;2.22;;;;;;;;;;5051244;28;20072;-75
2022/08/29 07:12:26;;;;;;;7.72;2.33;;;;;;;;;;5034436;28;20037;-75
2022/08/29 07:14:52;;;;;;;6.18;2.00;;;;;;;;;;5050799;28;20159;-75
2022/08/29 07:17:19;;;;;;;7.55;2.28;;;;;;;;;;5034127;28;20128;-75
2022/08/29 07:19:46;;;;;;;6.60;1.77;;;;;;;;;;5034151;28;20045;-75
2022/08/29 07:22:12;;;;;;;7.35;2.22;;;;;;;;;;5050757;28;20128;-75
2022/08/29 07:24:38;;;;;;;7.53;1.80;;;;;;;;;;5050766;28;20045;-75
2022/08/29 07:27:04;;;;;;;7.43;2.20;;;;;;;;;;5050769;28;20039;-75
2022/08/29 07:29:30;;;;;;;5.57;1.75;;;;;;;;;;5050972;28;20045;-75
2022/08/29 07:31:56;;;;;;;6.60;2.00;;;;;;;;;;5033768;28;20047;-76
2022/08/29 07:34:23;;;;;;;5.97;1.90;;;;;;;;;;5050586;28;20049;-76
2022/08/29 07:36:49;;;;;;;9.25;1.83;;;;;;;;;;5050179;28;20095;-76
2022/08/29 07:39:17;;;;;;;10.70;2.33;;;;;;;;;;5050902;28;20433;-76
2022/08/29 07:41:44;;;;;;;5.15;1.90;;;;;;;;;;5050045;28;20045;-76
2022/08/29 07:44:11;;;;;;;5.47;1.60;;;;;;;;;;5050812;28;20517;-76
2022/08/29 07:46:38;;;;;;;7.35;1.73;;;;;;;;;;5050117;28;20167;-76
2022/08/29 07:49:05;;;;;;;5.93;1.70;;;;;;;;;;5050628;28;20106;-76
2022/08/29 07:51:32;;;;;;;6.28;1.45;;;;;;;;;;5050456;28;20060;-76
2022/08/29 07:53:58;;;;;;;8.82;1.83;;;;;;;;;;5050035;28;20033;-75
2022/08/29 07:56:27;;;;;;;7.90;1.70;;;;;;;;;;5052110;28;20080;-76
2022/08/29 07:58:54;;;;;;;7.00;1.60;;;;;;;;;;5033500;28;20037;-75
2022/08/29 08:01:20;;;;;;;5.70;1.80;;;;;;;;;;5034064;28;20049;-76
2022/08/29 08:03:46;;;;;;;5.53;1.67;;;;;;;;;;5050221;28;20367;-75
2022/08/29 08:06:12;;;;;;;9.05;1.70;;;;;;;;;;5050719;28;20486;-76
2022/08/29 08:08:39;;;;;;;8.57;1.83;;;;;;;;;;5050225;28;20102;-76
2022/08/29 08:11:06;;;;;;;7.15;2.08;;;;;;;;;;5053361;28;20080;-76
2022/08/29 08:13:34;;;;;;;6.05;1.63;;;;;;;;;;5053950;28;20192;-76
2022/08/29 08:16:03;;;;;;;6.00;1.60;;;;;;;;;;5053908;28;20556;-76
2022/08/29 08:18:29;;;;;;;5.63;1.70;;;;;;;;;;5054262;28;20498;-76
2022/08/29 08:20:55;;;;;;;6.18;1.85;;;;;;;;;;5037046;28;20394;-76
2022/08/29 08:23:21;;;;;;;8.00;1.70;;;;;;;;;;5054251;28;20539;-76
2022/08/29 08:25:47;;;;;;;10.32;1.95;;;;;;;;;;5053328;28;20444;-76
2022/08/29 08:28:14;;;;;;;6.47;2.00;;;;;;;;;;5053778;28;20371;-75
2022/08/29 08:30:40;;;;;;;7.72;2.13;;;;;;;;;;5053761;28;20032;-76
2022/08/29 08:33:06;;;;;;;7.55;1.77;;;;;;;;;;5053775;28;20040;-76
2022/08/29 08:35:34;;;;;;;7.65;1.70;;;;;;;;;;5054004;28;20055;-76
2022/08/29 08:38:01;;;;;;;5.13;1.70;;;;;;;;;;5053059;28;20037;-76
2022/08/29 08:40:27;;;;;;;5.78;1.90;;;;;;;;;;5053612;28;20102;-76
2022/08/29 08:43:01;;;;;;;4.88;1.60;;;;;;;;;;5052865;28;20400;-75
2022/08/29 08:45:38;;;;;;;5.47;1.80;;;;;;;;;;5053877;28;20048;-76
2022/08/29 08:48:10;;;;;;;4.40;1.52;;;;;;;;;;5053465;28;20527;-76
2022/08/29 08:50:58;;;;;;;7.05;1.90;;;;;;;;;;5053449;28;20049;-76
2022/08/29 08:53:38;;;;;;;5.20;2.03;;;;;;;;;;5053425;28;20374;-76
2022/08/29 08:56:14;;;;;;;7.03;1.70;;;;;;;;;;5036463;28;20128;-76
2022/08/29 08:59:06;;;;;;;5.80;1.63;;;;;;;;;;5052995;28;20182;-76
2022/08/29 09:01:34;;;;;;;6.03;1.88;;;;;;;;;;5052978;28;20084;-76
2022/08/29 09:04:02;;;;;;;6.90;1.92;;;;;;;;;;5052906;28;20433;-76
2022/08/29 09:06:47;;;;;;;6.03;1.77;;;;;;;;;;5053485;28;20511;-76
2022/08/29 09:09:32;;;;;;;4.70;1.70;;;;;;;;;;5036317;28;20067;-75
2022/08/29 09:12:05;;;;;;;4.53;1.43;;;;;;;;;;5052599;28;20140;-76
2022/08/29 09:14:32;;;;;;;8.10;1.90;;;;;;;;;;5054175;28;20520;-76
2022/08/29 09:16:59;;;;;;;5.28;1.77;;;;;;;;;;5052821;28;20493;-76
2022/08/29 09:19:26;;;;;;;6.05;1.42;;;;;;;;;;5052928;28;20515;-76
2022/08/29 09:21:55;;;;;;;8.07;1.70;;;;;;;;;;5051605;28;20049;-76
2022/08/29 09:24:32;;;;;;;4.55;1.48;;;;;;;;;;5036281;28;20040;-76
2022/08/29 09:26:58;;;;;;;4.43;1.52;;;;;;;;;;5052647;28;20566;-76
2022/08/29 09:29:27;;;;;;;4.38;1.42;;;;;;;;;;5052607;28;20492;-76
2022/08/29 09:32:12;;;;;;;4.05;1.58;;;;;;;;;;5052287;28;20080;-76
2022/08/29 09:34:45;;;;;;;4.10;1.40;;;;;;;;;;5052422;28;20052;-76
2022/08/29 09:37:20;;;;;;;6.53;1.40;;;;;;;;;;5052132;28;20052;-76
2022/08/29 09:40:08;;;;;;;3.45;1.40;;;;;;;;;;5052559;28;20554;-76
2022/08/29 09:42:36;;;;;;;8.43;1.48;;;;;;;;;;5052309;28;20540;-76
2022/08/29 09:45:06;;;;;;;5.20;1.50;;;;;;;;;;5035253;28;20080;-75
2022/08/29 09:47:32;;;;;;;7.65;1.48;;;;;;;;;;5052689;28;20393;-75
2022/08/29 09:50:10;;;;;;;3.78;1.00;;;;;;;;;;5035252;28;20136;-76
2022/08/29 09:52:41;;;;;;;4.60;1.40;;;;;;;;;;5035589;28;20048;-76
2022/08/29 09:55:23;;;;;;;4.63;1.50;;;;;;;;;;5051510;28;20102;-76
2022/08/29 09:57:57;;;;;;;6.80;1.95;;;;;;;;;;5052397;28;20049;-76
2022/08/29 10:00:24;;;;;;;4.95;1.55;;;;;;;;;;5052095;28;20091;-76
2022/08/29 10:02:59;;;;;;;5.05;1.60;;;;;;;;;;5051989;28;20385;-76
2022/08/29 10:05:39;;;;;;;6.50;1.60;;;;;;;;;;5035372;28;20513;-76
2022/08/29 10:08:06;;;;;;;5.22;1.35;;;;;;;;;;5051820;28;20386;-77
2022/08/29 10:10:35;;;;;;;4.35;1.58;;;;;;;;;;5051806;28;20048;-75
2022/08/29 10:13:22;;;;;;;7.25;1.92;;;;;;;;;;5052011;28;20504;-77
2022/08/29 10:16:01;;;;;;;4.05;1.40;;;;;;;;;;5051328;28;20040;-75
2022/08/29 10:18:36;;;;;;;8.93;2.00;;;;;;;;;;5050424;28;20090;-75
2022/08/29 10:21:09;;;;;;;4.55;1.40;;;;;;;;;;5067401;28;20116;-75
2022/08/29 10:23:39;;;;;;;8.23;1.98;;;;;;;;;;5051851;28;20049;-75
2022/08/29 10:26:11;;;;;;;6.90;1.70;;;;;;;;;;5051558;28;20052;-75
2022/08/29 10:28:46;;;;;;;6.35;1.55;;;;;;;;;;5051836;28;20048;-75
2022/08/29 10:31:17;;;;;;;3.53;1.33;;;;;;;;;;5051318;28;20103;-75
2022/08/29 10:33:43;;;;;;;5.32;1.60;;;;;;;;;;5050929;28;20126;-75
2022/08/29 10:36:09;;;;;;;5.72;1.38;;;;;;;;;;5034601;28;20500;-75
2022/08/29 10:38:47;;;;;;;6.25;1.48;;;;;;;;;;5051744;28;20118;-75
2022/08/29 10:41:32;;;;;;;5.68;1.60;;;;;;;;;;5051226;28;20469;-75
2022/08/29 10:44:07;;;;;;;5.70;1.65;;;;;;;;;;5050645;28;20119;-75
2022/08/29 10:46:36;;;;;;;7.03;2.05;;;;;;;;;;5034808;28;20045;-74
2022/08/29 10:49:09;;;;;;;5.80;1.80;;;;;;;;;;5031666;28;20127;-75
2022/08/29 10:51:35;;;;;;;7.60;2.08;;;;;;;;;;5047084;28;20064;-75
2022/08/29 10:54:10;;;;;;;7.28;1.60;;;;;;;;;;5049671;28;20099;-75
2022/08/29 10:56:42;;;;;;;4.13;1.48;;;;;;;;;;5051298;28;20048;-75
2022/08/29 10:59:11;;;;;;;8.32;1.95;;;;;;;;;;5037328;28;20079;-75
2022/08/29 11:01:37;;;;;;;4.80;1.70;;;;;;;;;;5050593;28;20045;-76
2022/08/29 11:04:03;;;;;;;5.68;1.52;;;;;;;;;;5050455;28;20041;-75
2022/08/29 11:06:35;;;;;;;6.43;1.95;;;;;;;;;;5050705;28;20445;-76
2022/08/29 11:09:04;;;;;;;6.60;1.65;;;;;;;;;;5050405;28;20037;-76
2022/08/29 11:11:31;;;;;;;5.30;1.80;;;;;;;;;;5050092;28;20539;-76
2022/08/29 11:13:59;;;;;;;7.25;1.70;;;;;;;;;;5050239;28;20186;-76
2022/08/29 11:16:33;;;;;;;6.25;1.80;;;;;;;;;;5049817;28;20041;-77
2022/08/29 11:19:02;;;;;;;4.97;1.73;;;;;;;;;;5048708;28;20063;-76
2022/08/29 11:21:35;;;;;;;6.43;1.92;;;;;;;;;;5049744;28;20048;-79
2022/08/29 11:24:02;;;;;;;6.72;1.80;;;;;;;;;;5048378;28;20119;-79
2022/08/29 11:26:35;;;;;;;5.75;1.50;;;;;;;;;;5049936;28;20045;-80
2022/08/29 11:29:07;;;;;;;6.10;1.75;;;;;;;;;;5064975;28;20191;-83
2022/08/29 11:31:52;;;;;;;4.70;1.60;;;;;;;;;;5033777;28;20119;-81
2022/08/29 11:34:36;;;;;;;4.65;1.70;;;;;;;;;;5048990;28;20541;-82
2022/08/29 11:37:14;;;;;;;5.45;1.50;;;;;;;;;;5050869;28;20041;-81
2022/08/29 11:39:41;;;;;;;5.18;1.60;;;;;;;;;;5062577;28;20042;-82
2022/08/29 11:42:09;;;;;;;8.63;1.67;;;;;;;;;;5033921;28;20152;-82
2022/08/29 11:44:39;;;;;;;6.70;2.20;;;;;;;;;;5034387;28;20491;-82
2022/08/29 11:47:24;;;;;;;5.60;1.67;;;;;;;;;;5054580;28;20037;-83
2022/08/29 11:49:51;;;;;;;6.55;1.55;;;;;;;;;;5036736;28;20077;-83
2022/08/29 11:52:23;;;;;;;6.53;1.70;;;;;;;;;;5054048;28;20147;-83
2022/08/29 11:55:12;;;;;;;7.03;1.80;;;;;;;;;;5038135;28;20045;-82
2022/08/29 11:57:47;;;;;;;4.93;1.60;;;;;;;;;;5027150;28;20044;-83
2022/08/29 12:00:34;;;;;;;5.90;1.77;;;;;;;;;;5049435;28;20106;-82
2022/08/29 12:03:00;;;;;;;6.70;2.00;;;;;;;;;;5040459;28;20041;-84
2022/08/29 12:05:29;;;;;;;5.47;1.75;;;;;;;;;;5047339;28;20060;-84
2022/08/29 12:08:13;;;;;;;5.43;1.90;;;;;;;;;;5043685;28;20128;-85
2022/08/29 12:10:54;;;;;;;5.22;1.73;;;;;;;;;;5042588;28;20041;-84
2022/08/29 12:13:38;;;;;;;8.65;1.75;;;;;;;;;;5046920;28;20657;-84
2022/08/29 12:16:08;;;;;;;7.35;1.60;;;;;;;;;;5049168;28;20397;-84
2022/08/29 12:18:34;;;;;;;7.03;1.77;;;;;;;;;;5041059;28;20053;-83
2022/08/29 12:21:02;;;;;;;5.30;1.80;;;;;;;;;;5043276;28;20041;-82
2022/08/29 12:23:36;;;;;;;5.13;2.00;;;;;;;;;;5052212;28;20486;-82
2022/08/29 12:26:04;;;;;;;6.28;2.10;;;;;;;;;;5050152;28;20037;-83
2022/08/29 12:28:35;;;;;;;6.25;1.98;;;;;;;;;;5051832;28;20041;-83
2022/08/29 12:31:13;;;;;;;7.68;2.58;;;;;;;;;;5044576;28;20087;-84
2022/08/29 12:33:49;;;;;;;6.75;2.13;;;;;;;;;;5046269;28;20045;-82
2022/08/29 12:36:25;;;;;;;7.57;2.35;;;;;;;;;;5042911;28;20091;-82
2022/08/29 12:38:52;;;;;;;8.25;2.17;;;;;;;;;;5030323;28;20028;-82
2022/08/29 12:41:18;;;;;;;7.32;2.20;;;;;;;;;;5043293;28;20593;-77
2022/08/29 12:43:45;;;;;;;8.00;2.60;;;;;;;;;;5046896;28;20104;-83
2022/08/29 12:46:39;;;;;;;5.82;2.10;;;;;;;;;;5049109;28;20094;-83
2022/08/29 12:49:08;;;;;;;9.60;2.28;;;;;;;;;;5030698;28;20041;-83
2022/08/29 12:51:36;;;;;;;11.27;2.67;;;;;;;;;;5043354;28;20065;-82
2022/08/29 12:54:02;;;;;;;9.10;2.85;;;;;;;;;;5049446;28;20102;-80
2022/08/29 12:56:28;;;;;;;8.55;2.53;;;;;;;;;;5035097;28;20128;-80
2022/08/29 12:58:59;;;;;;;10.30;2.63;;;;;;;;;;5053220;28;20040;-78
2022/08/29 13:01:25;;;;;;;5.63;2.60;;;;;;;;;;5036793;28;20072;-79
2022/08/29 13:04:02;;;;;;;8.07;2.55;;;;;;;;;;5036851;28;20481;-80
2022/08/29 13:06:28;;;;;;;9.32;3.33;;;;;;;;;;5052845;28;20385;-79
2022/08/29 13:08:54;;;;;;;7.15;2.65;;;;;;;;;;5052906;28;20087;-80
2022/08/29 13:11:23;;;;;;;6.07;2.60;;;;;;;;;;5052513;28;20044;-80
2022/08/29 13:13:49;;;;;;;7.97;2.95;;;;;;;;;;5052076;28;20041;-79
2022/08/29 13:16:24;;;;;;;8.57;2.80;;;;;;;;;;5050510;28;20049;-79
2022/08/29 13:18:50;;;;;;;;;;;;;;;;;;5040312;28;20128;-80
2022/08/29 13:21:24;;;;;;;9.15;2.63;;;;;;;;;;5036922;28;20012;-79
2022/08/29 13:24:18;;;;;;;10.82;2.80;;;;;;;;;;5041040;28;20064;-80
2022/08/29 13:26:50;;;;;;;37.30;4.47;;;;;;;;;;5033643;28;20509;-80
2022/08/29 13:29:19;;;;;;;8.95;3.13;;;;;;;;;;5035881;28;20041;-80
2022/08/29 13:32:05;;;;;;;12.07;3.03;;;;;;;;;;5045543;28;20453;-80
2022/08/29 13:34:31;;;;;;;10.05;3.10;;;;;;;;;;5066737;28;20049;-81
2022/08/29 13:37:05;;;;;;;11.73;3.15;;;;;;;;;;5052021;28;20079;-81
2022/08/29 13:39:34;;;;;;;8.23;2.90;;;;;;;;;;5035601;28;20119;-80
2022/08/29 13:42:00;;;;;;;9.23;3.25;;;;;;;;;;5045402;28;20456;-79
2022/08/29 13:44:31;;;;;;;7.88;2.80;;;;;;;;;;5039752;28;20029;-80
2022/08/29 13:46:59;;;;;;;8.77;2.80;;;;;;;;;;5035857;28;20037;-75
2022/08/29 13:49:30;;;;;;;9.55;2.90;;;;;;;;;;5038231;28;20043;-75
2022/08/29 13:51:57;;;;;;;9.13;2.88;;;;;;;;;;5042933;28;20080;-75
2022/08/29 13:54:23;;;;;;;12.40;3.28;;;;;;;;;;5038480;28;20128;-75
2022/08/29 13:56:50;;;;;;;7.93;2.70;;;;;;;;;;5048266;28;20505;-76
2022/08/29 13:59:22;;;;;;;10.07;2.90;;;;;;;;;;5052162;28;20142;-75
2022/08/29 14:01:49;;;;;;;11.85;3.03;;;;;;;;;;5052234;28;20045;-76
2022/08/29 14:04:15;;;;;;;7.35;2.70;;;;;;;;;;5052099;28;20044;-76
2022/08/29 14:06:41;;;;;;;7.57;3.10;;;;;;;;;;5051908;28;20044;-76
2022/08/29 14:09:08;;;;;;;13.55;3.00;;;;;;;;;;5052026;28;20390;-76
2022/08/29 14:11:34;;;;;;;10.73;3.10;;;;;;;;;;5053177;28;20048;-76
2022/08/29 14:14:00;;;;;;;8.30;3.15;;;;;;;;;;5035862;28;20123;-75
2022/08/29 14:16:26;;;;;;;6.60;2.58;;;;;;;;;;5051645;28;20040;-75
2022/08/29 14:18:52;;;;;;;8.48;3.28;;;;;;;;;;5035123;28;20074;-76
2022/08/29 14:21:19;;;;;;;11.05;2.85;;;;;;;;;;5051538;28;20124;-76
2022/08/29 14:23:47;;;;;;;10.00;3.05;;;;;;;;;;5052857;28;20041;-76
2022/08/29 14:26:13;;;;;;;10.75;3.00;;;;;;;;;;5051830;28;20041;-75
2022/08/29 14:28:39;;;;;;;8.23;2.97;;;;;;;;;;5034787;28;20136;-75
2022/08/29 14:31:05;;;;;;;8.82;3.10;;;;;;;;;;5050704;28;20085;-77
2022/08/29 14:33:32;;;;;;;7.93;2.90;;;;;;;;;;5050256;28;20040;-78
2022/08/29 14:35:58;;;;;;;10.52;3.20;;;;;;;;;;5049767;28;20444;-76
2022/08/29 14:38:24;;;;;;;9.82;2.80;;;;;;;;;;5050602;28;20425;-77
2022/08/29 14:40:50;;;;;;;11.23;3.38;;;;;;;;;;5025324;28;20033;-78
2022/08/29 14:43:16;;;;;;;10.63;2.80;;;;;;;;;;5045272;28;20070;-78
2022/08/29 14:45:42;;;;;;;9.38;3.28;;;;;;;;;;5041711;28;20094;-78
2022/08/29 14:48:08;;;;;;;9.70;3.00;;;;;;;;;;5038061;28;20068;-77
2022/08/29 14:50:34;;;;;;;8.02;2.78;;;;;;;;;;5035186;28;20547;-78
2022/08/29 14:53:00;;;;;;;9.23;2.90;;;;;;;;;;5040056;28;20048;-78